This is the latest recevied weather packets stored in our database for station/object N4NVD-13. If no packets are shown the sender has not sent any weather packets the latest 1 day(s).
| Time | Temp. | Humidity | Pressure | Rain* | Wind** | Luminosity | Snow |
|---|---|---|---|---|---|---|---|
| 1778006182 | 26.67° C | 85% | 1007.3 hPa | 0 mm | 2.24 m/s, 211° | 276 W/m² | - |
| 1778005880 | 27.22° C | 85% | 1007.5 hPa | 0 mm | 3.13 m/s, 212° | 268 W/m² | - |
| 1778005576 | 26.67° C | 85% | 1007.3 hPa | 0 mm | 5.36 m/s, 220° | 436 W/m² | - |
| 1778005273 | 26.67° C | 85% | 1007.6 hPa | 0 mm | 1.34 m/s, 190° | 267 W/m² | - |
| 1778004969 | 27.22° C | 84% | 1007.6 hPa | 0 mm | 4.02 m/s, 216° | 433 W/m² | - |
| 1778004667 | 26.67° C | 85% | 1007.6 hPa | 0 mm | 5.81 m/s, 207° | 333 W/m² | - |
| 1778004363 | 27.22° C | 85% | 1007.5 hPa | 0 mm | 4.92 m/s, 228° | 283 W/m² | - |
| 1778004061 | 27.22° C | 85% | 1007.6 hPa | 0 mm | 1.79 m/s, 207° | 368 W/m² | - |
| 1778003756 | 26.67° C | 88% | 1007.7 hPa | 0 mm | 2.24 m/s, 226° | 424 W/m² | - |
| 1778003453 | 26.67° C | 86% | 1007.7 hPa | 0 mm | 3.13 m/s, 228° | 290 W/m² | - |
| 1778003150 | 26.67° C | 86% | 1007.9 hPa | 0 mm | 4.47 m/s, 215° | 384 W/m² | - |
| 1778002845 | 26.67° C | 87% | 1007.5 hPa | 0 mm | 2.68 m/s, 223° | 416 W/m² | - |
| 1778002537 | 26.11° C | 88% | 1008 hPa | 0 mm | 1.79 m/s, 204° | 406 W/m² | - |
| 1778002233 | 26.11° C | 88% | 1007.9 hPa | 0 mm | 3.13 m/s, 213° | 414 W/m² | - |
| 1778001931 | 25.56° C | 89% | 1007.9 hPa | 0 mm | 1.79 m/s, 223° | 406 W/m² | - |
| 1778001627 | 25.56° C | 89% | 1007.9 hPa | 0 mm | 2.68 m/s, 233° | 179 W/m² | - |
| 1778001323 | 25.56° C | 88% | 1008 hPa | 0 mm | 3.13 m/s, 217° | 142 W/m² | - |
| 1778001020 | 26.11° C | 88% | 1007.9 hPa | 0 mm | 2.24 m/s, 216° | 141 W/m² | - |
| 1778000717 | 26.11° C | 88% | 1008 hPa | 0 mm | 2.68 m/s, 227° | 182 W/m² | - |
| 1778000413 | 26.11° C | 88% | 1008 hPa | 0 mm | 4.92 m/s, 246° | 378 W/m² | - |
| 1778000108 | 25.56° C | 89% | 1007.9 hPa | 0 mm | 5.81 m/s, 250° | 242 W/m² | - |
| 1777999804 | 25.56° C | 88% | 1008.1 hPa | 0 mm | 4.02 m/s, 213° | 131 W/m² | - |
| 1777999500 | 25.56° C | 89% | 1008 hPa | 0 mm | 4.02 m/s, 231° | 144 W/m² | - |
| 1777999199 | 25.56° C | 89% | 1008.1 hPa | 0 mm | 4.92 m/s, 222° | 177 W/m² | - |
| 1777998897 | 25.56° C | 89% | 1008.1 hPa | 0 mm | 3.13 m/s, 227° | 237 W/m² | - |
* Rain latest hour (hover to see other rain measurements)
** Current wind speed in m/s (hover to see current wind gust speed)